Time;durP1;ratioP1;P1;durP2;ratioP2;P2;SDS_P1;SDS_P2;PMS_P1;PMS_P2;Temp;Humidity;BMP_temperature;BMP_pressure;BME280_temperature;BME280_humidity;BME280_pressure;Samples;Min_cycle;Max_cycle;Signal;HPM_P1;HPM_P2
2022/01/30 00:01:44;;;;;;;2.45;0.77;;;;;;;15.32;39.28;93399.41;5029583;28;20033;-80
2022/01/30 00:04:10;;;;;;;1.00;0.60;;;;;;;15.32;39.30;93409.56;5012773;28;20044;-81
2022/01/30 00:06:36;;;;;;;0.93;0.68;;;;;;;15.34;39.13;93396.94;5047696;28;20348;-80
2022/01/30 00:09:01;;;;;;;0.80;0.60;;;;;;;15.38;39.15;93385.78;5045650;28;20080;-81
2022/01/30 00:11:32;;;;;;;0.60;0.50;;;;;;;15.33;39.20;93403.63;5046911;28;20480;-82
2022/01/30 00:13:59;;;;;;;0.43;0.38;;;;;;;15.36;39.09;93391.75;5030261;28;20037;-80
2022/01/30 00:16:29;;;;;;;0.60;0.52;;;;;;;15.40;39.28;93399.66;5029284;28;20475;-81
2022/01/30 00:19:04;;;;;;;1.00;0.80;;;;;;;15.41;39.17;93388.28;5030407;28;20066;-81
2022/01/30 00:21:36;;;;;;;0.52;0.50;;;;;;;15.44;39.12;93387.31;5030282;28;20407;-81
2022/01/30 00:24:13;;;;;;;0.60;0.60;;;;;;;15.43;39.21;93350.41;5030247;28;20447;-80
2022/01/30 00:26:40;;;;;;;0.60;0.60;;;;;;;15.37;39.25;93359.81;5016185;28;20037;-81
2022/01/30 00:29:06;;;;;;;0.60;0.50;;;;;;;15.41;39.30;93371.94;5046774;28;20120;-81
2022/01/30 00:31:33;;;;;;;0.52;0.50;;;;;;;15.44;39.29;93360.06;5013066;28;20122;-81
2022/01/30 00:33:59;;;;;;;1.00;0.77;;;;;;;15.39;39.17;93371.69;5030177;28;20033;-80
2022/01/30 00:36:25;;;;;;;0.70;0.60;;;;;;;15.36;39.22;93359.06;5015890;28;20033;-81
2022/01/30 00:38:50;;;;;;;1.10;0.73;;;;;;;15.33;39.33;93368.22;5050575;28;20035;-81
2022/01/30 00:41:16;;;;;;;0.60;0.50;;;;;;;15.30;39.25;93352.88;5015130;28;20561;-82
2022/01/30 00:43:41;;;;;;;0.57;0.57;;;;;;;15.43;39.26;93360.56;5032734;28;20044;-81
2022/01/30 00:46:06;;;;;;;0.90;0.70;;;;;;;15.39;39.24;93338.25;5032219;28;20132;-81
2022/01/30 00:48:32;;;;;;;0.60;0.60;;;;;;;15.33;39.31;93324.66;5049102;28;20040;-81
2022/01/30 00:50:57;;;;;;;0.82;0.52;;;;;;;15.41;39.45;93314.00;5015608;28;20037;-81
2022/01/30 00:53:23;;;;;;;0.60;0.50;;;;;;;15.36;39.20;93339.25;5031964;28;20033;-81
2022/01/30 00:55:48;;;;;;;0.40;0.40;;;;;;;15.33;39.49;93335.53;5048710;28;20052;-81
2022/01/30 00:58:13;;;;;;;0.77;0.50;;;;;;;15.40;39.27;93332.31;5032367;28;20044;-81
2022/01/30 01:00:39;;;;;;;0.93;0.70;;;;;;;15.41;39.50;93322.16;5032343;28;20067;-81
2022/01/30 01:03:05;;;;;;;1.48;0.60;;;;;;;15.37;39.38;93324.41;5032000;28;20496;-81
2022/01/30 01:05:32;;;;;;;0.60;0.60;;;;;;;15.37;39.39;93343.47;5032196;28;20044;-81
2022/01/30 01:08:00;;;;;;;0.68;0.65;;;;;;;15.35;39.29;93340.50;5032479;28;20576;-81
2022/01/30 01:21:01;;;;;;;0.80;0.73;;;;;;;15.33;39.58;93319.19;5034234;28;20047;-81
2022/01/30 01:23:30;;;;;;;0.40;0.40;;;;;;;15.38;39.42;93334.78;5032760;28;20041;-81
2022/01/30 01:25:57;;;;;;;0.63;0.60;;;;;;;15.28;39.43;93333.53;5048549;28;20051;-81
2022/01/30 01:28:23;;;;;;;0.63;0.45;;;;;;;15.32;39.58;93314.25;5014833;28;20102;-81
2022/01/30 01:30:48;;;;;;;0.40;0.40;;;;;;;15.31;39.73;93321.66;5031668;28;20506;-81
2022/01/30 01:33:14;;;;;;;0.50;0.50;;;;;;;15.36;39.25;93310.03;5030954;28;20561;-81
2022/01/30 01:35:40;;;;;;;0.30;0.30;;;;;;;15.35;39.43;93316.00;5015478;28;20120;-81
2022/01/30 01:38:10;;;;;;;0.63;0.50;;;;;;;15.36;39.29;93312.03;5047477;28;20037;-81
2022/01/30 01:40:36;;;;;;;0.80;0.60;;;;;;;15.35;39.33;93314.00;5032238;28;20037;-81
2022/01/30 01:43:02;;;;;;;0.40;0.40;;;;;;;15.33;39.21;93316.47;5047444;28;20065;-82
2022/01/30 01:45:33;;;;;;;0.80;0.55;;;;;;;15.32;39.51;93308.78;5031181;28;20090;-81
2022/01/30 01:48:02;;;;;;;0.50;0.50;;;;;;;15.32;39.58;93312.25;5048316;28;20128;-81
2022/01/30 01:50:38;;;;;;;0.43;0.43;;;;;;;15.36;39.45;93282.81;5047320;28;20040;-81
2022/01/30 01:53:08;;;;;;;0.65;0.50;;;;;;;15.41;39.39;93309.28;5047469;28;20047;-81
2022/01/30 01:55:35;;;;;;;0.40;0.40;;;;;;;15.34;39.60;93298.91;5047395;28;20383;-81
2022/01/30 01:58:00;;;;;;;0.40;0.40;;;;;;;15.40;39.21;93305.06;5031600;28;20099;-81
2022/01/30 02:00:26;;;;;;;0.90;0.55;;;;;;;15.41;39.29;93295.66;5030482;28;20499;-81
2022/01/30 02:02:53;;;;;;;0.50;0.50;;;;;;;15.31;39.37;93301.84;5047357;28;20037;-81
2022/01/30 02:05:18;;;;;;;0.50;0.40;;;;;;;15.36;39.49;93303.84;5046974;28;20083;-81
2022/01/30 02:10:24;;;;;;;0.57;0.57;;;;;;;15.36;39.71;93276.63;5044914;28;20048;-80
2022/01/30 02:12:53;;;;;;;1.00;0.60;;;;;;;15.32;39.37;93293.19;5056949;28;20036;-81
2022/01/30 02:26:02;;;;;;;0.40;0.40;;;;;;;15.29;39.58;93266.22;5033240;28;20039;-80
2022/01/30 02:28:29;;;;;;;0.60;0.40;;;;;;;15.32;39.57;93259.78;5046771;28;20043;-81
2022/01/30 02:31:01;;;;;;;0.40;0.40;;;;;;;15.29;39.80;93264.22;5030976;28;20037;-81
2022/01/30 02:33:26;;;;;;;0.65;0.60;;;;;;;15.33;39.54;93258.53;5015443;28;20576;-82
2022/01/30 02:35:52;;;;;;;0.65;0.50;;;;;;;15.31;39.70;93253.59;5013620;28;20025;-81
2022/01/30 02:38:21;;;;;;;0.50;0.50;;;;;;;15.32;39.72;93263.25;5046579;28;20033;-80
2022/01/30 02:40:48;;;;;;;0.68;0.50;;;;;;;15.39;39.35;93265.47;5030205;28;20036;-80
2022/01/30 02:43:17;;;;;;;0.55;0.40;;;;;;;15.34;39.68;93254.56;5046317;28;20119;-81
2022/01/30 02:45:49;;;;;;;0.57;0.40;;;;;;;15.36;39.65;93244.69;5046910;28;20031;-81
2022/01/30 02:48:18;;;;;;;0.50;0.50;;;;;;;15.34;40.00;93246.41;5046586;28;20037;-81
2022/01/30 02:53:12;;;;;;;0.40;0.40;;;;;;;15.27;39.48;93263.97;5030485;28;20124;-81
2022/01/30 02:55:37;;;;;;;0.75;0.60;;;;;;;15.32;39.41;93255.06;5046486;28;20037;-81
2022/01/30 02:58:03;;;;;;;0.57;0.57;;;;;;;15.28;39.74;93254.56;5046207;28;20037;-81
2022/01/30 03:00:28;;;;;;;6.43;0.60;;;;;;;15.31;39.63;93250.13;5046334;28;20062;-81
2022/01/30 03:02:54;;;;;;;0.60;0.45;;;;;;;15.29;39.62;93249.88;5029978;28;20523;-81
2022/01/30 03:05:19;;;;;;;2.53;0.95;;;;;;;15.29;39.78;93258.03;5029983;28;20375;-81
2022/01/30 03:07:45;;;;;;;0.60;0.60;;;;;;;15.27;39.80;93250.34;5047927;28;20472;-81
2022/01/30 03:10:11;;;;;;;0.38;0.32;;;;;;;15.25;39.71;93247.38;5029138;28;20048;-80
2022/01/30 03:12:37;;;;;;;0.52;0.50;;;;;;;15.25;39.91;93249.38;5029869;28;20033;-81
2022/01/30 03:15:03;;;;;;;0.43;0.43;;;;;;;15.25;39.69;93247.38;5046075;28;20033;-81
2022/01/30 03:17:29;;;;;;;0.47;0.40;;;;;;;15.28;39.75;93262.00;5029742;28;20029;-81
2022/01/30 03:19:54;;;;;;;0.40;0.40;;;;;;;15.34;39.67;93258.03;4992365;28;20044;-80
2022/01/30 03:22:19;;;;;;;0.70;0.40;;;;;;;15.28;39.68;93259.28;5007743;28;20049;-80
2022/01/30 03:24:45;;;;;;;0.60;0.40;;;;;;;15.25;39.81;93249.38;5025409;28;20397;-80
2022/01/30 03:27:11;;;;;;;1.20;0.40;;;;;;;15.32;39.83;93263.25;4991751;28;20029;-81
2022/01/30 03:29:38;;;;;;;0.85;0.40;;;;;;;15.28;39.65;93256.53;4992534;28;20656;-81
2022/01/30 03:32:07;;;;;;;0.30;0.30;;;;;;;15.28;39.77;93248.38;4991688;28;20064;-80
2022/01/30 03:34:32;;;;;;;0.45;0.40;;;;;;;15.30;39.47;93243.19;4976234;28;20120;-81
2022/01/30 03:36:57;;;;;;;0.98;0.40;;;;;;;15.29;39.63;93222.63;4975562;28;20041;-80
2022/01/30 03:39:23;;;;;;;0.45;0.45;;;;;;;15.33;39.85;93214.97;5008225;28;20041;-82
2022/01/30 03:41:48;;;;;;;0.70;0.40;;;;;;;15.34;39.71;93205.56;5008850;28;20041;-81
2022/01/30 03:44:14;;;;;;;0.50;0.40;;;;;;;15.28;39.78;93211.00;4975142;28;20033;-80
2022/01/30 03:46:39;;;;;;;0.60;0.50;;;;;;;15.30;39.79;93224.88;5008511;28;20514;-80
2022/01/30 03:49:04;;;;;;;1.40;0.45;;;;;;;15.22;39.82;93215.69;5007855;28;20038;-83
2022/01/30 03:51:30;;;;;;;0.40;0.40;;;;;;;15.25;39.96;93235.75;5041946;28;20399;-80
2022/01/30 03:53:55;;;;;;;5.07;0.45;;;;;;;15.27;39.75;93242.19;5046420;28;20045;-81
2022/01/30 03:56:21;;;;;;;0.30;0.30;;;;;;;15.33;39.83;93226.59;5045679;28;20033;-81
2022/01/30 03:58:46;;;;;;;0.30;0.30;;;;;;;15.33;39.62;93234.03;5029328;28;20075;-82
2022/01/30 04:01:11;;;;;;;0.57;0.50;;;;;;;15.33;39.78;93231.31;5029370;28;20044;-82
2022/01/30 04:03:37;;;;;;;0.40;0.40;;;;;;;15.27;40.01;93247.63;5029467;28;20040;-84
2022/01/30 04:06:04;;;;;;;0.40;0.40;;;;;;;15.30;39.89;93249.38;5046182;28;20071;-83
2022/01/30 04:08:29;;;;;;;0.40;0.30;;;;;;;15.33;39.76;93245.66;5029434;28;20136;-81
2022/01/30 04:10:55;;;;;;;0.45;0.45;;;;;;;15.26;39.65;93248.13;5033257;28;20568;-81
2022/01/30 04:13:20;;;;;;;0.50;0.50;;;;;;;15.23;39.80;93266.19;5049265;28;20041;-80
2022/01/30 04:15:46;;;;;;;0.40;0.40;;;;;;;15.28;40.00;93262.75;5050131;28;20084;-82
2022/01/30 04:18:12;;;;;;;1.88;0.40;;;;;;;15.27;39.86;93271.41;5032917;28;20456;-80
2022/01/30 04:20:37;;;;;;;0.70;0.52;;;;;;;15.28;39.88;93270.16;5033500;28;20037;-82
2022/01/30 04:23:03;;;;;;;0.45;0.45;;;;;;;15.27;39.99;93269.41;5016239;28;20495;-80
2022/01/30 04:25:28;;;;;;;0.45;0.45;;;;;;;15.28;40.00;93260.00;5033249;28;20040;-83
2022/01/30 04:27:54;;;;;;;0.43;0.40;;;;;;;15.27;39.61;93276.84;5049613;28;20040;-81
2022/01/30 04:30:21;;;;;;;0.45;0.40;;;;;;;15.25;40.03;93265.69;5049078;28;20060;-81
2022/01/30 04:32:47;;;;;;;1.00;0.57;;;;;;;15.25;39.94;93282.03;5016291;28;20032;-81
2022/01/30 04:35:18;;;;;;;1.85;0.50;;;;;;;15.33;39.89;93288.50;5015684;28;20065;-80
2022/01/30 04:40:47;;;;;;;0.60;0.52;;;;;;;15.20;40.09;93275.34;5035312;28;20044;-81
2022/01/30 04:57:21;;;;;;;;;;;;;;;;;;;;;
2022/01/30 05:02:35;;;;;;;0.50;0.50;;;;;;;15.24;39.99;93270.41;4877371;29;20064;-81
2022/01/30 05:09:50;;;;;;;0.40;0.40;;;;;;;15.25;40.01;93292.94;4876716;29;20072;-82
2022/01/30 05:12:16;;;;;;;0.70;0.68;;;;;;;15.31;39.95;93293.69;4876489;29;20116;-81
2022/01/30 05:14:42;;;;;;;0.38;0.38;;;;;;;15.25;40.07;93280.06;4861647;29;20104;-83
2022/01/30 05:17:08;;;;;;;0.77;0.43;;;;;;;15.28;40.11;93289.22;4867905;29;20467;-81
2022/01/30 05:19:33;;;;;;;5.97;0.85;;;;;;;15.27;40.12;93287.75;4895298;29;20036;-81
2022/01/30 05:21:59;;;;;;;0.93;0.55;;;;;;;15.27;40.00;93276.84;4881271;29;20411;-81
2022/01/30 05:24:24;;;;;;;0.70;0.50;;;;;;;15.24;40.19;93270.41;4932762;29;20058;-80
2022/01/30 05:26:50;;;;;;;0.88;0.60;;;;;;;15.23;40.02;93251.84;4933284;29;20043;-81
2022/01/30 05:29:16;;;;;;;0.45;0.43;;;;;;;15.32;40.09;93260.53;5025953;28;20117;-80
2022/01/30 05:31:42;;;;;;;1.02;0.68;;;;;;;15.31;39.92;93271.91;5028477;28;20395;-81
2022/01/30 05:34:07;;;;;;;0.75;0.50;;;;;;;15.26;40.11;93272.63;5028125;28;20459;-81
2022/01/30 05:36:33;;;;;;;0.40;0.40;;;;;;;15.23;39.88;93260.00;5045136;28;20057;-80
2022/01/30 05:39:00;;;;;;;0.50;0.50;;;;;;;15.26;39.87;93254.31;5028396;28;20406;-81
2022/01/30 05:41:26;;;;;;;0.50;0.45;;;;;;;15.26;39.75;93262.47;5043710;28;20030;-81
2022/01/30 05:43:56;;;;;;;0.70;0.40;;;;;;;15.27;40.04;93252.34;5028256;28;20488;-81
2022/01/30 05:46:31;;;;;;;0.52;0.50;;;;;;;15.23;39.84;93244.41;5044480;28;20044;-81
2022/01/30 05:48:57;;;;;;;0.70;0.30;;;;;;;15.22;40.04;93255.78;5043095;28;20577;-81
2022/01/30 05:51:22;;;;;;;1.02;0.50;;;;;;;15.23;40.03;93249.09;5030903;28;20045;-81
2022/01/30 05:53:48;;;;;;;1.58;0.50;;;;;;;15.24;39.94;93245.16;5031205;28;20044;-81
2022/01/30 05:56:13;;;;;;;2.10;0.50;;;;;;;15.20;40.14;93259.00;5030962;28;20064;-81
2022/01/30 05:58:39;;;;;;;0.80;0.60;;;;;;;15.22;40.22;93261.22;5047612;28;20095;-81
2022/01/30 06:01:05;;;;;;;0.47;0.40;;;;;;;15.23;40.03;93282.53;5014118;28;20487;-81
2022/01/30 06:03:30;;;;;;;0.50;0.50;;;;;;;15.21;40.17;93290.44;5031247;28;20036;-81
2022/01/30 06:05:56;;;;;;;0.40;0.40;;;;;;;15.20;40.19;93274.59;5047779;28;20114;-82
2022/01/30 06:08:41;;;;;;;0.73;0.57;;;;;;;15.18;39.98;93290.69;5036095;28;20034;-81
2022/01/30 06:11:08;;;;;;;0.63;0.47;;;;;;;15.23;40.26;93271.63;5030633;28;20060;-81
2022/01/30 06:13:33;;;;;;;0.30;0.30;;;;;;;15.24;39.96;93278.56;5056551;28;20119;-80
2022/01/30 06:15:59;;;;;;;1.73;0.50;;;;;;;15.21;39.85;93287.72;5038748;28;20041;-83
2022/01/30 06:18:25;;;;;;;0.98;0.40;;;;;;;15.16;40.22;93287.69;5046671;28;20570;-82
2022/01/30 06:20:50;;;;;;;0.95;0.63;;;;;;;15.22;40.04;93305.56;5030844;28;20067;-81
2022/01/30 06:23:15;;;;;;;0.68;0.50;;;;;;;15.24;39.89;93305.81;5046310;28;20033;-81
2022/01/30 06:25:41;;;;;;;0.95;0.50;;;;;;;15.23;39.84;93298.88;5030648;28;20041;-80
2022/01/30 06:28:06;;;;;;;1.10;0.60;;;;;;;15.28;39.87;93316.47;5013742;28;20039;-80
2022/01/30 06:30:31;;;;;;;0.40;0.40;;;;;;;15.25;39.94;93306.53;5047286;28;20048;-80
2022/01/30 06:32:57;;;;;;;0.40;0.40;;;;;;;15.30;39.64;93320.19;5029863;28;20040;-80
2022/01/30 06:35:22;;;;;;;0.77;0.60;;;;;;;15.25;39.86;93314.72;5046271;28;20048;-81
2022/01/30 06:37:48;;;;;;;1.10;0.50;;;;;;;15.20;39.83;93308.00;5030637;28;20503;-81
2022/01/30 06:40:13;;;;;;;1.10;0.60;;;;;;;15.23;40.20;93330.81;5046506;28;20091;-80
2022/01/30 06:42:39;;;;;;;1.52;0.60;;;;;;;15.30;39.86;93328.34;5030910;28;20037;-81
2022/01/30 06:45:05;;;;;;;0.90;0.52;;;;;;;15.23;40.08;93317.19;5046650;28;20029;-81
2022/01/30 06:47:31;;;;;;;0.73;0.50;;;;;;;15.31;40.17;93323.66;5047053;28;20518;-81
2022/01/30 06:49:56;;;;;;;0.60;0.60;;;;;;;15.24;39.76;93332.28;5048223;28;20048;-81
2022/01/30 06:52:21;;;;;;;1.10;0.60;;;;;;;15.22;40.02;93335.50;5013202;28;20041;-81
2022/01/30 06:54:47;;;;;;;0.40;0.40;;;;;;;15.22;40.00;93346.41;5046639;28;20447;-81
2022/01/30 06:57:12;;;;;;;0.60;0.47;;;;;;;15.20;39.97;93345.41;5029784;28;20040;-81
2022/01/30 06:59:38;;;;;;;0.70;0.52;;;;;;;15.22;39.83;93340.94;5030159;28;20037;-81
2022/01/30 07:02:03;;;;;;;1.02;0.50;;;;;;;15.26;39.96;93341.47;5047837;28;20033;-81
2022/01/30 07:04:29;;;;;;;1.20;0.90;;;;;;;15.26;39.94;93333.28;5046629;28;20029;-84
2022/01/30 07:06:54;;;;;;;0.63;0.40;;;;;;;15.20;40.16;93335.25;5046676;28;20120;-81
2022/01/30 07:09:20;;;;;;;1.33;1.02;;;;;;;15.22;40.04;93332.78;5029332;28;20045;-82
2022/01/30 07:11:45;;;;;;;0.82;0.55;;;;;;;15.19;40.06;93333.00;5030251;28;20041;-81
2022/01/30 07:14:11;;;;;;;0.70;0.45;;;;;;;15.23;40.07;93353.31;5046153;28;20091;-81
2022/01/30 07:16:36;;;;;;;0.70;0.32;;;;;;;15.24;40.01;93343.19;5029907;28;20048;-81
2022/01/30 07:19:02;;;;;;;0.40;0.40;;;;;;;15.25;39.81;93347.41;5013450;28;20079;-81
2022/01/30 07:21:27;;;;;;;1.13;0.70;;;;;;;15.24;40.03;93343.19;5045885;28;20041;-81
2022/01/30 07:23:52;;;;;;;1.30;0.60;;;;;;;15.24;39.87;93352.09;5046790;28;20507;-81
2022/01/30 07:26:18;;;;;;;0.90;0.60;;;;;;;15.24;40.08;93365.72;5029305;28;20049;-81
2022/01/30 07:28:43;;;;;;;0.57;0.50;;;;;;;15.24;40.22;93370.41;5030146;28;20047;-81
2022/01/30 07:31:08;;;;;;;0.73;0.50;;;;;;;15.33;39.75;93367.47;5045590;28;20403;-81
2022/01/30 07:33:35;;;;;;;0.90;0.70;;;;;;;15.28;40.05;93355.31;5013932;28;20554;-81
2022/01/30 07:36:01;;;;;;;1.73;0.60;;;;;;;15.34;40.01;93398.94;5013370;28;20408;-81
2022/01/30 07:38:27;;;;;;;0.95;0.60;;;;;;;15.26;39.98;93376.13;5046144;28;20030;-81
2022/01/30 07:40:53;;;;;;;0.63;0.60;;;;;;;15.24;39.89;93363.00;5013260;28;20248;-81
2022/01/30 07:43:18;;;;;;;1.90;0.70;;;;;;;15.30;39.98;93377.38;5047218;28;20340;-82
2022/01/30 07:45:43;;;;;;;0.63;0.50;;;;;;;15.26;39.96;93362.50;5048918;28;20041;-81
2022/01/30 07:48:09;;;;;;;1.08;0.70;;;;;;;15.26;39.92;93376.13;5050939;28;20036;-81
2022/01/30 07:50:34;;;;;;;0.60;0.60;;;;;;;15.26;39.60;93363.25;5017268;28;20126;-81
2022/01/30 07:53:00;;;;;;;0.73;0.60;;;;;;;15.28;40.01;93370.94;5051501;28;20037;-81
2022/01/30 07:55:25;;;;;;;1.23;0.70;;;;;;;15.24;39.81;93386.75;5049582;28;20053;-81
2022/01/30 07:57:50;;;;;;;0.77;0.60;;;;;;;15.28;39.81;93388.00;5033384;28;20091;-81
2022/01/30 08:00:17;;;;;;;1.08;0.82;;;;;;;15.25;39.76;93408.03;5033029;28;20041;-81
2022/01/30 08:02:42;;;;;;;0.50;0.50;;;;;;;15.26;39.99;93387.75;5049602;28;20037;-81
2022/01/30 08:05:08;;;;;;;0.77;0.57;;;;;;;15.30;39.93;93410.06;5049428;28;20400;-81
2022/01/30 08:07:34;;;;;;;1.42;0.52;;;;;;;15.29;39.87;93399.66;5033257;28;20033;-81
2022/01/30 08:09:59;;;;;;;0.60;0.60;;;;;;;15.29;39.94;93394.94;5049433;28;20037;-81
2022/01/30 08:12:24;;;;;;;1.55;0.50;;;;;;;15.29;39.92;93394.94;5033058;28;20527;-81
2022/01/30 08:14:50;;;;;;;0.60;0.43;;;;;;;15.31;39.84;93394.47;5049534;28;20033;-81
2022/01/30 08:17:21;;;;;;;0.88;0.70;;;;;;;15.33;39.76;93383.81;5032963;28;20506;-81
2022/01/30 08:19:47;;;;;;;0.75;0.60;;;;;;;15.33;39.37;93384.56;5018120;28;20049;-81
2022/01/30 08:22:13;;;;;;;0.73;0.63;;;;;;;15.37;39.78;93395.94;5033079;28;20049;-81
2022/01/30 08:24:38;;;;;;;1.15;0.60;;;;;;;15.33;39.44;93411.06;5049863;28;20029;-81
2022/01/30 08:27:04;;;;;;;0.85;0.40;;;;;;;15.32;39.86;93415.00;5011055;28;20037;-81
2022/01/30 08:29:30;;;;;;;0.73;0.50;;;;;;;15.34;39.76;93424.19;4995568;28;20049;-81
2022/01/30 08:31:56;;;;;;;0.60;0.50;;;;;;;15.39;39.51;93428.88;5011405;28;20048;-81
2022/01/30 08:34:22;;;;;;;1.10;0.63;;;;;;;15.41;39.85;93445.47;4994564;28;20067;-81
2022/01/30 08:36:47;;;;;;;0.63;0.60;;;;;;;15.32;39.75;93443.00;4995314;28;20037;-82
2022/01/30 08:39:12;;;;;;;1.20;0.60;;;;;;;15.35;39.75;93441.28;5011260;28;20049;-81
2022/01/30 08:41:38;;;;;;;0.60;0.60;;;;;;;15.41;39.72;93445.47;4978800;28;20033;-81
2022/01/30 08:44:03;;;;;;;1.17;0.70;;;;;;;15.46;39.62;93444.03;5011182;28;20463;-83
2022/01/30 08:46:29;;;;;;;0.50;0.50;;;;;;;15.48;39.54;93452.44;4978842;28;20048;-82
2022/01/30 08:48:54;;;;;;;0.85;0.70;;;;;;;15.40;39.67;93456.88;5011267;28;20041;-81
2022/01/30 08:51:21;;;;;;;0.95;0.43;;;;;;;15.41;39.59;93461.81;5027007;28;20064;-81
2022/01/30 08:53:47;;;;;;;0.70;0.57;;;;;;;15.42;39.31;93463.31;5027663;28;20420;-81
2022/01/30 08:56:12;;;;;;;0.75;0.60;;;;;;;15.41;39.74;93466.53;5009546;28;20037;-81
2022/01/30 08:58:38;;;;;;;1.02;0.70;;;;;;;15.41;39.75;93474.69;5044886;28;20040;-80
2022/01/30 09:01:03;;;;;;;1.48;0.70;;;;;;;15.42;39.52;93476.94;5014727;28;20037;-81
2022/01/30 09:03:29;;;;;;;0.82;0.60;;;;;;;15.40;39.54;93465.03;5032477;28;20045;-81
2022/01/30 09:05:54;;;;;;;1.35;0.60;;;;;;;15.43;39.62;93480.41;5048955;28;20041;-81
2022/01/30 09:08:19;;;;;;;1.17;0.60;;;;;;;15.42;39.58;93493.28;5031963;28;20593;-80
2022/01/30 09:10:46;;;;;;;0.82;0.50;;;;;;;15.47;39.50;93485.63;5031803;28;20041;-81
2022/01/30 09:13:11;;;;;;;0.77;0.60;;;;;;;15.42;39.84;93500.72;5031688;28;20040;-81
2022/01/30 09:15:40;;;;;;;1.38;0.75;;;;;;;15.43;39.53;93497.50;5031980;28;20045;-81
2022/01/30 09:18:08;;;;;;;1.50;0.73;;;;;;;15.44;39.68;93499.00;5048271;28;20140;-81
2022/01/30 09:20:35;;;;;;;0.55;0.50;;;;;;;15.51;39.53;93500.50;5048804;28;20033;-81
2022/01/30 09:23:01;;;;;;;1.30;0.60;;;;;;;15.47;39.14;93516.34;5048564;28;20037;-82
2022/01/30 09:25:27;;;;;;;1.00;0.60;;;;;;;15.43;39.32;93521.28;5014847;28;20033;-81
2022/01/30 09:27:53;;;;;;;1.17;0.70;;;;;;;15.40;39.27;93533.13;5031814;28;20515;-80
2022/01/30 09:30:18;;;;;;;1.20;0.60;;;;;;;15.37;39.71;93543.03;5031465;28;20045;-81
2022/01/30 09:32:44;;;;;;;0.75;0.50;;;;;;;15.46;39.42;93542.09;5048318;28;20041;-81
2022/01/30 09:35:09;;;;;;;2.75;0.68;;;;;;;15.43;39.51;93548.50;5047805;28;20041;-80
2022/01/30 09:37:35;;;;;;;0.52;0.43;;;;;;;15.41;39.63;93543.53;5049714;28;20044;-81
2022/01/30 09:40:00;;;;;;;1.55;0.80;;;;;;;15.43;39.36;93537.63;5031650;28;20033;-81
2022/01/30 09:42:25;;;;;;;0.50;0.50;;;;;;;15.42;39.54;93544.28;5049005;28;20040;-81
2022/01/30 09:44:51;;;;;;;0.63;0.50;;;;;;;15.46;39.59;93550.25;5048689;28;20112;-82
2022/01/30 09:47:17;;;;;;;0.82;0.60;;;;;;;15.42;39.57;93549.75;5014284;28;20036;-80
2022/01/30 09:49:48;;;;;;;1.02;0.57;;;;;;;15.40;39.53;93552.22;5031407;28;20032;-81
2022/01/30 09:52:14;;;;;;;0.52;0.52;;;;;;;15.36;39.75;93547.00;5047323;28;20064;-81
2022/01/30 09:54:39;;;;;;;1.67;0.60;;;;;;;15.37;39.39;93545.75;5048411;28;20060;-82
2022/01/30 09:57:05;;;;;;;1.23;0.60;;;;;;;15.30;38.86;93538.06;5048331;28;20051;-82
2022/01/30 09:59:30;;;;;;;2.55;0.73;;;;;;;15.31;38.99;93550.44;5031357;28;20036;-80
2022/01/30 10:01:56;;;;;;;2.95;0.60;;;;;;;15.33;39.09;93569.03;5014240;28;20048;-81
2022/01/30 10:04:21;;;;;;;0.82;0.60;;;;;;;15.34;39.31;93551.44;5030684;28;20044;-80
2022/01/30 10:07:06;;;;;;;1.13;0.73;;;;;;;15.32;39.25;93592.78;5032990;28;20099;-81
2022/01/30 10:09:34;;;;;;;0.90;0.60;;;;;;;15.34;39.57;93593.06;5054791;28;20120;-83
2022/01/30 10:12:16;;;;;;;1.42;0.73;;;;;;;15.33;39.37;93577.19;5062078;28;20515;-80
2022/01/30 10:14:48;;;;;;;1.00;0.63;;;;;;;15.33;39.57;93597.00;5056432;28;20075;-81
2022/01/30 10:17:29;;;;;;;0.93;0.70;;;;;;;15.36;39.54;93596.03;5054784;28;20527;-81
2022/01/30 10:20:08;;;;;;;1.50;0.82;;;;;;;15.34;39.67;93595.03;5031315;28;20093;-81
2022/01/30 10:22:36;;;;;;;1.77;0.73;;;;;;;15.35;39.82;93583.66;5048774;28;20295;-80
2022/01/30 10:25:01;;;;;;;1.98;0.98;;;;;;;15.37;39.45;93586.59;5031167;28;20037;-81
2022/01/30 10:27:28;;;;;;;0.82;0.60;;;;;;;15.34;39.75;93609.41;5030342;28;20064;-81
2022/01/30 10:29:57;;;;;;;0.45;0.45;;;;;;;15.38;39.73;93600.97;5031086;28;20425;-81
2022/01/30 10:32:23;;;;;;;1.13;0.60;;;;;;;15.40;39.55;93579.44;5046486;28;20048;-82
2022/01/30 10:34:57;;;;;;;0.85;0.70;;;;;;;15.40;39.64;93582.16;5014522;28;20033;-81
2022/01/30 10:37:24;;;;;;;2.03;0.60;;;;;;;15.36;39.54;93555.19;5030248;28;20039;-81
2022/01/30 10:40:13;;;;;;;1.30;0.60;;;;;;;15.37;39.79;93547.75;5030837;28;20025;-80
2022/01/30 10:42:42;;;;;;;0.80;0.63;;;;;;;15.36;39.83;93559.88;5046922;28;20029;-80
2022/01/30 10:45:26;;;;;;;2.03;0.80;;;;;;;15.40;39.64;93557.66;5046291;28;20033;-80
2022/01/30 10:48:10;;;;;;;1.02;0.70;;;;;;;15.41;39.69;93557.16;5047083;28;20029;-81
2022/01/30 10:50:37;;;;;;;2.90;0.80;;;;;;;15.42;39.69;93563.38;5013998;28;20491;-81
2022/01/30 10:53:04;;;;;;;2.28;0.60;;;;;;;15.39;39.98;93546.00;5029551;28;20037;-81
2022/01/30 10:55:38;;;;;;;1.25;0.68;;;;;;;15.49;39.76;93557.47;5046820;28;20414;-80
2022/01/30 10:58:05;;;;;;;1.52;0.70;;;;;;;15.53;39.48;93570.88;5046477;28;20463;-81
2022/01/30 11:00:38;;;;;;;1.30;0.65;;;;;;;15.42;40.28;93555.19;5046626;28;20029;-81
2022/01/30 11:03:03;;;;;;;1.52;0.90;;;;;;;15.36;39.95;93557.91;5045826;28;20047;-81
2022/01/30 11:05:29;;;;;;;0.65;0.60;;;;;;;15.40;40.27;93552.94;5046742;28;20033;-81
2022/01/30 11:07:54;;;;;;;1.15;0.65;;;;;;;15.40;39.88;93557.66;5030085;28;20040;-83
2022/01/30 11:10:24;;;;;;;1.83;0.88;;;;;;;15.46;39.76;93554.97;5046488;28;20037;-82
2022/01/30 11:12:57;;;;;;;0.70;0.60;;;;;;;15.43;40.16;93545.78;5031162;28;20033;-82
2022/01/30 11:15:35;;;;;;;2.10;0.77;;;;;;;15.45;40.01;93548.78;5046398;28;20087;-81
2022/01/30 11:18:03;;;;;;;1.17;0.80;;;;;;;15.44;39.76;93560.91;5026946;28;20090;-82
2022/01/30 11:20:32;;;;;;;1.95;0.50;;;;;;;15.40;40.26;93554.94;5013324;28;20044;-82
2022/01/30 11:23:00;;;;;;;1.30;0.80;;;;;;;15.42;40.19;93555.19;5046828;28;20025;-83
2022/01/30 11:25:25;;;;;;;0.68;0.50;;;;;;;15.42;40.05;93566.09;5046091;28;20483;-81
2022/01/30 11:27:51;;;;;;;2.08;0.70;;;;;;;15.44;40.20;93580.72;5030010;28;20204;-81
2022/01/30 11:30:16;;;;;;;0.73;0.55;;;;;;;15.44;40.24;93578.00;5046387;28;20380;-81
2022/01/30 11:32:41;;;;;;;0.70;0.70;;;;;;;15.46;40.21;93571.31;5047604;28;20411;-81
2022/01/30 11:35:07;;;;;;;0.65;0.43;;;;;;;15.42;40.07;93555.94;5045980;28;20384;-80
2022/01/30 11:37:33;;;;;;;0.98;0.80;;;;;;;15.43;39.88;93570.31;5029493;28;20392;-81
2022/01/30 11:40:00;;;;;;;1.45;0.70;;;;;;;15.42;40.28;93566.09;5029800;28;20037;-81
2022/01/30 11:42:27;;;;;;;1.25;0.80;;;;;;;15.46;40.07;93563.13;5029274;28;20456;-81
2022/01/30 11:45:03;;;;;;;1.20;0.73;;;;;;;15.40;40.38;93566.56;5029986;28;20388;-80
2022/01/30 11:47:29;;;;;;;1.90;0.80;;;;;;;15.42;40.30;93553.22;5045435;28;20064;-81
2022/01/30 11:50:00;;;;;;;1.40;0.55;;;;;;;15.43;40.24;93562.88;5010043;28;20030;-83
2022/01/30 11:52:48;;;;;;;0.77;0.70;;;;;;;15.44;40.12;93566.34;5027547;28;20041;-81
2022/01/30 11:55:38;;;;;;;1.13;0.60;;;;;;;15.46;40.29;93544.06;5042298;28;20038;-81
2022/01/30 11:58:03;;;;;;;3.15;0.80;;;;;;;15.47;40.03;93545.56;5025718;28;20573;-80
2022/01/30 12:00:40;;;;;;;0.90;0.45;;;;;;;15.44;40.11;93544.56;5042900;28;20038;-80
2022/01/30 12:03:26;;;;;;;0.93;0.70;;;;;;;15.47;40.28;93557.19;5025593;28;20117;-80
2022/01/30 12:05:52;;;;;;;0.70;0.70;;;;;;;15.43;39.86;93556.69;5043046;28;20064;-81
2022/01/30 12:08:48;;;;;;;1.65;0.70;;;;;;;15.47;40.23;93559.19;5026018;28;20064;-81
2022/01/30 12:11:37;;;;;;;1.25;0.60;;;;;;;15.47;40.05;93551.75;5026608;28;20060;-81
2022/01/30 12:14:03;;;;;;;1.23;0.70;;;;;;;15.44;40.35;93553.47;5027430;28;20041;-80
2022/01/30 12:16:44;;;;;;;1.42;0.88;;;;;;;15.46;40.35;93535.91;5028376;28;20064;-80
2022/01/30 12:19:09;;;;;;;;;;;;;;;15.47;39.92;93546.31;5029382;28;20125;-81
2022/01/30 12:21:34;;;;;;;1.55;0.70;;;;;;;15.46;39.97;93531.19;5046059;28;20010;-80
2022/01/30 12:24:23;;;;;;;2.20;1.05;;;;;;;15.44;40.45;93534.41;5047323;28;20029;-81
2022/01/30 12:26:50;;;;;;;0.75;0.63;;;;;;;15.45;40.09;93546.03;5045389;28;20043;-81